Terminal Aerodrome Forecast
Issued by NWS Mt. Holly, NJ

Current Version | Previous Version | Text Only | Print | Product List | Glossary On
Versions: 1 2 3 4 5 6 7 8 9 10 11 12 13 14 15 16 17 18 19 20 21 22 23 24 25 26
000
FTUS41 KPHI 021225 AAA
TAFACY
TAF AMD
KACY 021225Z 0212/0312 VRB03KT 6SM BR VCSH BKN100
     FM021500 07006KT P6SM -SHRA BKN050 BKN100
     FM021800 15005KT P6SM SHRA BKN050
      TEMPO 0219/0223 3SM TSRA BKN035CB
     FM030100 VRB02KT P6SM SCT050 BKN150
     FM030400 VRB02KT 3SM BR BKN150=

USA.gov is the U.S. government's official web portal to all federal, state and local government web resources and services.